createdAt,value
2022-08-29T00:00:59.491Z,10.63
2022-08-29T00:03:27.312Z,9.98
2022-08-29T00:05:54.843Z,9.80
2022-08-29T00:08:22.073Z,11.82
2022-08-29T00:10:49.332Z,10.13
2022-08-29T00:13:16.824Z,9.63
2022-08-29T00:15:44.664Z,10.32
2022-08-29T00:18:12.096Z,8.77
2022-08-29T00:20:39.045Z,9.80
2022-08-29T00:23:07.568Z,10.15
2022-08-29T00:25:34.657Z,13.07
2022-08-29T00:28:01.732Z,11.60
2022-08-29T00:30:28.702Z,10.23
2022-08-29T00:32:55.614Z,11.52
2022-08-29T00:35:26.202Z,11.20
2022-08-29T00:37:54.710Z,12.63
2022-08-29T00:40:27.788Z,10.05
2022-08-29T00:42:55.124Z,10.07
2022-08-29T00:45:22.416Z,10.18
2022-08-29T00:48:00.981Z,11.65
2022-08-29T00:50:41.327Z,10.90
2022-08-29T00:53:12.519Z,12.82
2022-08-29T00:55:40.966Z,13.55
2022-08-29T00:58:24.997Z,10.82
2022-08-29T01:00:52.838Z,9.75
2022-08-29T01:03:20.422Z,12.27
2022-08-29T01:05:47.986Z,9.98
2022-08-29T01:08:15.170Z,8.48
2022-08-29T01:11:00.799Z,11.52
2022-08-29T01:13:35.033Z,8.95
2022-08-29T01:16:03.531Z,11.52
2022-08-29T01:18:34.577Z,10.50
2022-08-29T01:21:20.040Z,10.77
2022-08-29T01:24:01.288Z,10.23
2022-08-29T01:26:30.450Z,9.98
2022-08-29T01:28:58.027Z,9.05
2022-08-29T01:31:37.850Z,10.02
2022-08-29T01:34:17.427Z,9.63
2022-08-29T01:36:53.803Z,9.07
2022-08-29T01:39:23.466Z,10.90
2022-08-29T01:41:51.566Z,12.27
2022-08-29T01:44:21.386Z,13.07
2022-08-29T01:46:51.226Z,13.07
2022-08-29T01:49:20.701Z,14.23
2022-08-29T01:51:47.797Z,11.57
2022-08-29T01:54:15.881Z,15.98
2022-08-29T01:56:49.913Z,11.95
2022-08-29T01:59:19.634Z,10.52
2022-08-29T02:01:59.673Z,14.00
2022-08-29T02:04:27.377Z,11.63
2022-08-29T02:06:56.066Z,9.95
2022-08-29T02:09:24.112Z,11.95
2022-08-29T02:11:54.385Z,10.95
2022-08-29T02:14:21.595Z,9.95
2022-08-29T02:16:48.901Z,9.82
2022-08-29T02:19:17.172Z,13.15
2022-08-29T02:21:44.507Z,10.23
2022-08-29T02:24:25.000Z,9.75
2022-08-29T02:26:53.309Z,10.30
2022-08-29T02:29:20.254Z,12.73
2022-08-29T02:31:47.428Z,10.45
2022-08-29T02:34:14.877Z,9.60
2022-08-29T02:36:44.035Z,13.68
2022-08-29T02:39:12.516Z,10.68
2022-08-29T02:41:39.577Z,10.15
2022-08-29T02:44:11.630Z,10.18
2022-08-29T02:46:38.787Z,13.20
2022-08-29T02:49:06.144Z,12.27
2022-08-29T02:51:34.013Z,15.25
2022-08-29T02:54:01.729Z,14.75
2022-08-29T02:56:28.760Z,12.75
2022-08-29T02:58:56.089Z,14.60
2022-08-29T03:01:24.251Z,16.85
2022-08-29T03:03:52.590Z,14.23
2022-08-29T03:06:20.685Z,12.35
2022-08-29T03:08:47.617Z,11.38
2022-08-29T03:11:16.025Z,10.38
2022-08-29T03:13:46.579Z,10.93
2022-08-29T03:16:13.976Z,11.50
2022-08-29T03:18:41.170Z,10.18
2022-08-29T03:21:16.132Z,10.32
2022-08-29T03:23:43.074Z,9.32
2022-08-29T03:26:10.061Z,11.52
2022-08-29T03:28:37.037Z,13.52
2022-08-29T03:31:04.152Z,11.93
2022-08-29T03:33:31.094Z,10.93
2022-08-29T03:35:58.051Z,12.73
2022-08-29T03:38:25.047Z,14.55
2022-08-29T03:40:51.937Z,13.00
2022-08-29T03:43:22.853Z,12.60
2022-08-29T03:45:49.880Z,10.95
2022-08-29T03:48:16.814Z,12.85
2022-08-29T03:50:43.960Z,9.75
2022-08-29T03:53:10.935Z,11.82
2022-08-29T03:55:38.593Z,10.82
2022-08-29T03:58:05.810Z,11.90
2022-08-29T04:00:32.877Z,12.73
2022-08-29T04:02:59.855Z,13.70
2022-08-29T04:05:26.946Z,13.32
2022-08-29T04:07:59.449Z,13.43
2022-08-29T04:10:37.640Z,11.85
2022-08-29T04:13:06.517Z,10.85
2022-08-29T04:15:34.057Z,10.27
2022-08-29T04:18:04.631Z,12.65
2022-08-29T04:20:38.567Z,11.85
2022-08-29T04:23:06.403Z,10.93
2022-08-29T04:25:37.556Z,12.32
2022-08-29T04:28:07.858Z,13.82
2022-08-29T04:30:35.405Z,12.25
2022-08-29T04:33:02.485Z,10.73
2022-08-29T04:35:29.962Z,11.05
2022-08-29T04:37:57.197Z,11.30
2022-08-29T04:40:24.340Z,12.10
2022-08-29T04:42:51.487Z,14.35
2022-08-29T04:45:22.721Z,11.30
2022-08-29T04:47:50.212Z,11.07
2022-08-29T04:50:22.663Z,11.65
2022-08-29T04:52:50.474Z,11.05
2022-08-29T04:55:22.607Z,11.82
2022-08-29T04:57:53.880Z,12.63
2022-08-29T05:00:25.059Z,11.40
2022-08-29T05:02:51.990Z,13.70
2022-08-29T05:05:19.221Z,11.43
2022-08-29T05:07:46.696Z,12.07
2022-08-29T05:10:19.542Z,12.57
2022-08-29T05:12:46.634Z,17.58
2022-08-29T05:15:15.229Z,10.02
2022-08-29T05:17:42.671Z,8.65
2022-08-29T05:20:10.414Z,10.15
2022-08-29T05:22:38.958Z,10.40
2022-08-29T05:25:06.588Z,9.75
2022-08-29T05:27:33.670Z,9.27
2022-08-29T05:30:02.722Z,8.88
2022-08-29T05:32:29.592Z,9.63
2022-08-29T05:34:57.643Z,9.30
2022-08-29T05:37:24.723Z,10.20
2022-08-29T05:39:51.804Z,9.00
2022-08-29T05:42:22.373Z,8.90
2022-08-29T05:44:49.801Z,10.00
2022-08-29T05:47:19.206Z,10.35
2022-08-29T05:49:47.888Z,9.40
2022-08-29T05:52:17.360Z,11.32
2022-08-29T05:54:45.534Z,8.68
2022-08-29T05:57:18.927Z,9.73
2022-08-29T05:59:47.620Z,9.93
2022-08-29T06:02:14.829Z,9.40
2022-08-29T06:04:41.813Z,10.93
2022-08-29T06:07:09.786Z,11.65
2022-08-29T06:09:38.816Z,11.23
2022-08-29T06:12:06.820Z,10.00
2022-08-29T06:14:34.187Z,10.80
2022-08-29T06:17:01.759Z,8.50
2022-08-29T06:19:31.344Z,8.10
2022-08-29T06:21:58.203Z,10.57
2022-08-29T06:24:25.153Z,10.55
2022-08-29T06:26:52.219Z,9.40
2022-08-29T06:29:19.200Z,11.38
2022-08-29T06:31:46.247Z,12.43
2022-08-29T06:34:13.054Z,11.82
2022-08-29T06:36:40.168Z,11.10
2022-08-29T06:39:09.672Z,11.13
2022-08-29T06:41:38.499Z,14.60
2022-08-29T06:44:05.833Z,13.65
2022-08-29T06:46:41.861Z,15.27
2022-08-29T06:49:12.440Z,14.43
2022-08-29T06:51:41.048Z,11.68
2022-08-29T06:54:10.594Z,14.73
2022-08-29T06:56:39.821Z,12.98
2022-08-29T06:59:10.308Z,16.67
2022-08-29T07:01:37.625Z,15.43
2022-08-29T07:04:04.918Z,15.05
2022-08-29T07:06:32.229Z,17.63
2022-08-29T07:09:00.103Z,16.45
2022-08-29T07:11:30.264Z,19.08
2022-08-29T07:14:04.579Z,17.33
2022-08-29T07:16:34.186Z,15.75
2022-08-29T07:19:02.798Z,17.60
2022-08-29T07:21:30.068Z,17.02
2022-08-29T07:23:58.632Z,20.65
2022-08-29T07:26:36.326Z,16.33
2022-08-29T07:29:07.333Z,16.30
2022-08-29T07:31:34.287Z,18.67
2022-08-29T07:34:02.886Z,17.33
2022-08-29T07:36:31.979Z,18.38
2022-08-29T07:38:58.836Z,15.18
2022-08-29T07:41:26.025Z,15.93
2022-08-29T07:43:52.902Z,18.92
2022-08-29T07:46:21.132Z,14.30
2022-08-29T07:48:48.778Z,15.60
2022-08-29T07:51:18.257Z,13.38
2022-08-29T07:53:46.787Z,14.07
2022-08-29T07:56:18.291Z,19.20
2022-08-29T07:58:45.580Z,14.80
2022-08-29T08:01:20.620Z,14.80
2022-08-29T08:03:50.225Z,14.95
2022-08-29T08:06:21.243Z,16.20
2022-08-29T08:08:49.604Z,16.02
2022-08-29T08:11:17.614Z,13.13
2022-08-29T08:13:44.677Z,12.50
2022-08-29T08:16:17.736Z,12.00
2022-08-29T08:18:44.853Z,12.00
2022-08-29T08:21:12.444Z,10.25
2022-08-29T08:23:40.483Z,10.52
2022-08-29T08:26:09.222Z,9.90
2022-08-29T08:28:36.615Z,10.73
2022-08-29T08:31:06.796Z,9.02
2022-08-29T08:33:35.563Z,9.30
2022-08-29T08:36:04.259Z,9.98
2022-08-29T08:38:31.689Z,10.15
2022-08-29T08:41:17.853Z,11.88
2022-08-29T08:43:47.842Z,11.13
2022-08-29T08:46:15.148Z,10.32
2022-08-29T08:48:43.196Z,8.63
2022-08-29T08:51:23.800Z,9.52
2022-08-29T08:53:56.789Z,8.98
2022-08-29T08:56:54.790Z,8.95
2022-08-29T08:59:39.519Z,9.18
2022-08-29T09:02:15.767Z,7.68
2022-08-29T09:04:50.739Z,8.90
2022-08-29T09:07:27.194Z,8.18
2022-08-29T09:10:30.359Z,7.97
2022-08-29T09:13:15.953Z,8.90
2022-08-29T09:15:45.890Z,10.35
2022-08-29T09:18:36.934Z,11.45
2022-08-29T09:21:39.585Z,11.07
2022-08-29T09:24:08.783Z,8.93
2022-08-29T09:26:36.139Z,8.68
2022-08-29T09:29:03.131Z,8.80
2022-08-29T09:31:33.025Z,7.50
2022-08-29T09:34:08.203Z,7.60
2022-08-29T09:36:53.440Z,9.05
2022-08-29T09:39:29.728Z,8.43
2022-08-29T09:42:13.764Z,11.43
2022-08-29T09:44:51.071Z,7.68
2022-08-29T09:47:24.122Z,8.95
2022-08-29T09:50:17.705Z,7.22
2022-08-29T09:53:16.619Z,8.75
2022-08-29T09:55:52.595Z,8.13
2022-08-29T09:58:20.105Z,8.43
2022-08-29T10:01:06.619Z,7.28
2022-08-29T10:03:38.522Z,5.68
2022-08-29T10:06:20.036Z,10.35
2022-08-29T10:09:02.492Z,6.28
2022-08-29T10:11:41.860Z,6.90
2022-08-29T10:14:22.813Z,7.10
2022-08-29T10:17:19.527Z,10.65
2022-08-29T10:19:46.936Z,7.35
2022-08-29T10:25:03.202Z,10.07
2022-08-29T10:27:43.948Z,7.05
2022-08-29T10:30:16.109Z,6.45
2022-08-29T10:33:20.119Z,5.57
2022-08-29T10:36:01.444Z,5.57
2022-08-29T10:38:45.207Z,9.85
2022-08-29T10:41:39.426Z,6.32
2022-08-29T10:44:09.709Z,6.53
2022-08-29T10:46:52.467Z,7.45
2022-08-29T10:49:22.135Z,5.82
2022-08-29T10:52:19.336Z,5.53
2022-08-29T10:55:09.076Z,7.70
2022-08-29T10:57:55.903Z,5.72
2022-08-29T11:00:38.343Z,7.20
2022-08-29T11:03:27.845Z,5.18
2022-08-29T11:06:13.017Z,6.57
2022-08-29T11:08:47.831Z,6.63
2022-08-29T11:11:19.430Z,6.50
2022-08-29T11:13:51.263Z,6.78
2022-08-29T11:16:29.208Z,8.30
2022-08-29T11:19:31.484Z,6.22
2022-08-29T11:22:26.479Z,7.47
2022-08-29T11:25:04.438Z,5.40
2022-08-29T11:27:53.497Z,8.23
2022-08-29T11:31:02.896Z,5.85
2022-08-29T11:34:01.171Z,6.80
2022-08-29T11:36:44.344Z,6.03
2022-08-29T11:39:35.490Z,6.07
2022-08-29T11:42:10.470Z,6.38
2022-08-29T11:44:40.329Z,5.05
2022-08-29T11:47:40.525Z,7.25
2022-08-29T11:50:17.421Z,6.50
2022-08-29T11:53:04.817Z,9.93
2022-08-29T11:55:36.383Z,6.95
2022-08-29T11:58:15.479Z,6.15
2022-08-29T12:00:44.533Z,7.57
2022-08-29T12:03:41.104Z,6.65
2022-08-29T12:06:46.652Z,6.70
2022-08-29T12:09:14.278Z,7.07
2022-08-29T12:12:02.423Z,8.00
2022-08-29T12:14:37.916Z,6.63
2022-08-29T12:17:31.923Z,6.10
2022-08-29T12:20:09.862Z,7.13
2022-08-29T12:22:51.564Z,10.75
2022-08-29T12:25:28.084Z,5.47
2022-08-29T12:28:24.024Z,5.93
2022-08-29T12:31:05.951Z,5.75
2022-08-29T12:34:05.680Z,6.18
2022-08-29T12:36:56.257Z,6.20
2022-08-29T12:39:44.140Z,7.68
2022-08-29T12:42:26.019Z,7.10
2022-08-29T12:45:13.990Z,5.50
2022-08-29T12:48:04.951Z,5.30
2022-08-29T12:50:36.012Z,5.95
2022-08-29T12:53:17.985Z,4.93
2022-08-29T12:55:49.376Z,6.00
2022-08-29T12:58:34.219Z,6.10
2022-08-29T13:01:01.642Z,4.97
2022-08-29T13:03:28.923Z,6.03
2022-08-29T13:06:06.376Z,6.38
2022-08-29T13:08:37.263Z,5.93
2022-08-29T13:11:10.286Z,5.32
2022-08-29T13:13:38.024Z,5.90
2022-08-29T13:16:07.926Z,5.47
2022-08-29T13:18:44.599Z,6.93
2022-08-29T13:21:32.961Z,5.95
2022-08-29T13:24:13.502Z,3.55
2022-08-29T13:27:03.053Z,6.47
2022-08-29T13:29:42.858Z,5.32
2022-08-29T13:32:09.816Z,7.72
2022-08-29T13:34:36.685Z,4.28
2022-08-29T13:37:07.845Z,7.70
2022-08-29T13:39:46.416Z,5.03
2022-08-29T13:42:22.853Z,6.55
2022-08-29T13:44:49.637Z,6.15
2022-08-29T13:47:23.791Z,6.22
2022-08-29T13:49:51.957Z,5.82
2022-08-29T13:52:19.339Z,5.65
2022-08-29T13:54:46.459Z,6.72
2022-08-29T13:57:18.834Z,5.13
2022-08-29T13:59:46.037Z,4.82
2022-08-29T14:02:14.877Z,5.05
2022-08-29T14:04:43.118Z,6.60
2022-08-29T14:07:15.939Z,6.05
2022-08-29T14:09:45.851Z,4.53
2022-08-29T14:12:14.333Z,5.82
2022-08-29T14:14:45.156Z,4.85
2022-08-29T14:17:14.277Z,7.03
2022-08-29T14:19:45.909Z,5.50
2022-08-29T14:22:12.996Z,5.20
2022-08-29T14:24:40.771Z,6.28
2022-08-29T14:27:08.994Z,6.03
2022-08-29T14:29:36.720Z,7.03
2022-08-29T14:32:04.240Z,4.13
2022-08-29T14:34:32.850Z,4.20
2022-08-29T14:37:01.120Z,4.80
2022-08-29T14:39:28.444Z,5.35
2022-08-29T14:41:55.896Z,6.15
2022-08-29T14:44:23.180Z,6.35
2022-08-29T14:46:51.015Z,6.50
2022-08-29T14:49:19.046Z,4.60
2022-08-29T14:51:46.198Z,4.40
2022-08-29T14:54:13.326Z,4.50
2022-08-29T14:56:48.212Z,4.60
2022-08-29T14:59:16.253Z,4.07
2022-08-29T15:01:43.280Z,5.75
2022-08-29T15:04:11.177Z,5.25
2022-08-29T15:06:38.999Z,6.95
2022-08-29T15:09:06.141Z,4.82
2022-08-29T15:11:33.422Z,6.45
2022-08-29T15:14:04.412Z,7.20
2022-08-29T15:16:32.206Z,7.38
2022-08-29T15:21:46.371Z,5.38
2022-08-29T15:24:13.943Z,6.45
2022-08-29T15:26:41.089Z,5.47
2022-08-29T15:29:09.032Z,5.40
2022-08-29T15:31:35.964Z,5.88
2022-08-29T15:34:03.337Z,5.55
2022-08-29T15:36:30.381Z,5.38
2022-08-29T15:38:58.486Z,11.02
2022-08-29T15:41:25.684Z,5.50
2022-08-29T15:43:52.653Z,4.78
2022-08-29T15:46:19.572Z,5.03
2022-08-29T15:48:48.569Z,6.30
2022-08-29T15:51:15.461Z,4.05
2022-08-29T15:53:42.482Z,6.93
2022-08-29T15:56:09.666Z,7.30
2022-08-29T15:58:36.998Z,6.45
2022-08-29T16:01:05.686Z,6.90
2022-08-29T16:03:32.783Z,5.15
2022-08-29T16:06:00.387Z,5.15
2022-08-29T16:08:29.455Z,3.78
2022-08-29T16:10:56.795Z,5.38
2022-08-29T16:13:23.850Z,6.05
2022-08-29T16:15:50.813Z,5.68
2022-08-29T16:18:17.851Z,5.03
2022-08-29T16:20:44.785Z,5.25
2022-08-29T16:23:12.552Z,7.57
2022-08-29T16:25:39.698Z,7.68
2022-08-29T16:28:08.681Z,5.13
2022-08-29T16:30:44.416Z,6.47
2022-08-29T16:33:13.635Z,4.40
2022-08-29T16:35:40.554Z,5.03
2022-08-29T16:38:07.537Z,9.07
2022-08-29T16:40:34.671Z,5.75
2022-08-29T16:43:02.755Z,5.97
2022-08-29T16:45:30.836Z,4.63
2022-08-29T16:47:58.163Z,4.72
2022-08-29T16:50:26.083Z,6.60
2022-08-29T16:52:53.204Z,5.95
2022-08-29T16:55:20.827Z,6.13
2022-08-29T16:58:07.734Z,4.45
2022-08-29T17:00:35.629Z,7.38
2022-08-29T17:03:02.859Z,7.32
2022-08-29T17:05:30.553Z,5.90
2022-08-29T17:07:57.363Z,6.90
2022-08-29T17:10:24.193Z,6.57
2022-08-29T17:12:51.140Z,6.75
2022-08-29T17:15:17.947Z,4.82
2022-08-29T17:17:45.046Z,5.28
2022-08-29T17:20:12.090Z,5.47
2022-08-29T17:22:39.440Z,7.07
2022-08-29T17:25:06.956Z,5.28
2022-08-29T17:27:33.977Z,7.50
2022-08-29T17:30:00.952Z,7.85
2022-08-29T17:32:28.584Z,5.25
2022-08-29T17:34:55.432Z,4.07
2022-08-29T17:37:22.244Z,5.68
2022-08-29T17:39:49.124Z,5.38
2022-08-29T17:42:16.065Z,5.15
2022-08-29T17:44:44.865Z,7.03
2022-08-29T17:47:12.773Z,5.18
2022-08-29T17:49:39.709Z,7.78
2022-08-29T17:52:06.584Z,5.55
2022-08-29T17:54:33.865Z,6.63
2022-08-29T17:57:01.478Z,4.95
2022-08-29T17:59:32.777Z,4.78
2022-08-29T18:02:00.343Z,5.85
2022-08-29T18:04:27.956Z,5.85
2022-08-29T18:06:56.364Z,4.75
2022-08-29T18:09:24.624Z,6.18
2022-08-29T18:11:53.965Z,5.32
2022-08-29T18:14:23.780Z,6.53
2022-08-29T18:16:52.491Z,5.00
2022-08-29T18:19:22.393Z,5.45
2022-08-29T18:21:51.715Z,6.80
2022-08-29T18:24:19.188Z,4.57
2022-08-29T18:26:47.633Z,6.40
2022-08-29T18:29:14.914Z,5.78
2022-08-29T18:31:42.597Z,6.25
2022-08-29T18:34:11.006Z,5.45
2022-08-29T18:36:40.507Z,5.75
2022-08-29T18:39:08.696Z,5.00
2022-08-29T18:41:35.626Z,5.97
2022-08-29T18:44:03.365Z,5.63
2022-08-29T18:46:30.794Z,6.25
2022-08-29T18:48:58.436Z,5.15
2022-08-29T18:51:26.122Z,6.18
2022-08-29T18:53:53.024Z,6.97
2022-08-29T18:56:20.203Z,5.38
2022-08-29T18:58:47.126Z,5.97
2022-08-29T19:01:26.990Z,6.97
2022-08-29T19:03:56.693Z,7.45
2022-08-29T19:06:25.894Z,7.25
2022-08-29T19:08:54.582Z,6.03
2022-08-29T19:11:21.709Z,5.80
2022-08-29T19:13:52.440Z,7.75
2022-08-29T19:16:21.579Z,8.95
2022-08-29T19:18:48.626Z,5.63
2022-08-29T19:21:15.492Z,6.03
2022-08-29T19:23:45.666Z,8.00
2022-08-29T19:26:21.181Z,6.72
2022-08-29T19:28:48.181Z,5.82
2022-08-29T19:31:17.292Z,6.90
2022-08-29T19:33:45.139Z,6.13
2022-08-29T19:36:12.474Z,8.55
2022-08-29T19:38:41.639Z,6.90
2022-08-29T19:41:10.344Z,6.68
2022-08-29T19:43:40.860Z,7.07
2022-08-29T19:46:17.949Z,7.25
2022-08-29T19:48:48.533Z,5.65
2022-08-29T19:51:21.159Z,7.45
2022-08-29T19:53:48.614Z,8.50
2022-08-29T19:56:17.402Z,6.13
2022-08-29T19:58:44.555Z,6.07
2022-08-29T20:01:11.613Z,7.72
2022-08-29T20:03:42.026Z,6.47
2022-08-29T20:06:09.799Z,6.25
2022-08-29T20:08:39.923Z,5.78
2022-08-29T20:11:09.693Z,7.50
2022-08-29T20:13:38.253Z,7.25
2022-08-29T20:16:12.307Z,7.88
2022-08-29T20:21:07.847Z,7.05
2022-08-29T20:23:35.007Z,6.72
2022-08-29T20:26:02.521Z,7.20
2022-08-29T20:28:30.562Z,7.53
2022-08-29T20:30:57.916Z,6.20
2022-08-29T20:33:25.463Z,8.55
2022-08-29T20:36:11.983Z,7.13
2022-08-29T20:38:38.843Z,6.82
2022-08-29T20:41:06.047Z,5.85
2022-08-29T20:43:33.062Z,7.85
2022-08-29T20:46:00.147Z,7.82
2022-08-29T20:48:31.111Z,7.22
2022-08-29T20:51:00.468Z,6.95
2022-08-29T20:53:32.594Z,8.13
2022-08-29T20:56:00.701Z,8.23
2022-08-29T20:58:30.107Z,11.13
2022-08-29T21:00:58.322Z,8.07
2022-08-29T21:03:44.245Z,7.78
2022-08-29T21:06:11.323Z,8.57
2022-08-29T21:08:39.807Z,8.65
2022-08-29T21:11:06.854Z,7.95
2022-08-29T21:13:33.683Z,6.25
2022-08-29T21:16:01.273Z,8.70
2022-08-29T21:18:28.263Z,7.32
2022-08-29T21:20:55.546Z,8.43
2022-08-29T21:23:24.317Z,8.40
2022-08-29T21:25:55.817Z,6.97
2022-08-29T21:28:24.825Z,7.97
2022-08-29T21:30:52.233Z,8.15
2022-08-29T21:33:20.010Z,9.77
2022-08-29T21:35:50.137Z,8.20
2022-08-29T21:38:17.861Z,7.22
2022-08-29T21:40:50.981Z,8.15
2022-08-29T21:43:19.977Z,7.70
2022-08-29T21:45:47.982Z,9.00
2022-08-29T21:48:14.931Z,8.73
2022-08-29T21:50:42.090Z,7.65
2022-08-29T21:53:15.041Z,7.18
2022-08-29T21:55:42.311Z,8.38
2022-08-29T21:58:09.444Z,10.85
2022-08-29T22:00:40.499Z,7.25
2022-08-29T22:03:09.031Z,7.22
2022-08-29T22:05:36.073Z,7.80
2022-08-29T22:08:07.167Z,6.82
2022-08-29T22:10:37.083Z,8.15
2022-08-29T22:13:05.985Z,12.93
2022-08-29T22:15:51.717Z,6.65
2022-08-29T22:18:19.224Z,7.88
2022-08-29T22:20:47.613Z,7.32
2022-08-29T22:23:20.601Z,6.65
2022-08-29T22:25:47.738Z,8.25
2022-08-29T22:28:14.619Z,8.60
2022-08-29T22:30:41.545Z,7.30
2022-08-29T22:33:08.987Z,7.28
2022-08-29T22:35:43.186Z,7.90
2022-08-29T22:38:11.196Z,13.25
2022-08-29T22:40:38.429Z,9.77
2022-08-29T22:43:05.432Z,9.18
2022-08-29T22:45:32.530Z,9.23
2022-08-29T22:47:59.399Z,8.80
2022-08-29T22:50:26.862Z,6.65
2022-08-29T22:52:58.111Z,10.77
2022-08-29T22:57:52.151Z,9.10
2022-08-29T23:00:21.743Z,7.20
2022-08-29T23:02:49.888Z,7.35
2022-08-29T23:05:19.434Z,9.88
2022-08-29T23:07:46.355Z,7.97
2022-08-29T23:10:14.496Z,7.75
2022-08-29T23:12:41.809Z,9.63
2022-08-29T23:15:12.944Z,9.52
2022-08-29T23:17:40.376Z,6.70
2022-08-29T23:20:11.499Z,9.07
2022-08-29T23:22:38.884Z,7.40
2022-08-29T23:25:08.295Z,8.57
2022-08-29T23:27:35.893Z,10.85
2022-08-29T23:30:05.929Z,8.13
2022-08-29T23:32:32.800Z,9.25
2022-08-29T23:34:59.863Z,9.70
2022-08-29T23:37:26.820Z,8.35
2022-08-29T23:39:53.801Z,8.73
2022-08-29T23:42:21.002Z,9.05
2022-08-29T23:44:48.675Z,10.68
2022-08-29T23:47:16.444Z,13.88
2022-08-29T23:49:43.470Z,11.95
2022-08-29T23:52:10.458Z,12.27
2022-08-29T23:54:37.362Z,9.95
2022-08-29T23:57:04.737Z,10.70
2022-08-29T23:59:52.742Z,11.25
